createdAt,value
2018-08-04T00:00:21.369Z,99.90
2018-08-04T00:02:49.707Z,99.90
2018-08-04T00:05:17.959Z,99.90
2018-08-04T00:07:46.228Z,99.90
2018-08-04T00:10:17.517Z,99.90
2018-08-04T00:12:47.226Z,99.90
2018-08-04T00:15:15.591Z,99.90
2018-08-04T00:17:43.875Z,99.90
2018-08-04T00:20:12.244Z,99.90
2018-08-04T00:22:40.619Z,99.90
2018-08-04T00:25:09.038Z,99.90
2018-08-04T00:27:37.323Z,99.90
2018-08-04T00:30:07.528Z,99.90
2018-08-04T00:32:35.876Z,99.90
2018-08-04T00:37:32.160Z,99.90
2018-08-04T00:40:00.430Z,99.90
2018-08-04T00:42:28.719Z,99.90
2018-08-04T00:44:56.975Z,99.90
2018-08-04T00:49:53.240Z,99.90
2018-08-04T00:52:21.537Z,99.90
2018-08-04T00:54:49.795Z,99.90
2018-08-04T00:59:46.124Z,99.90
2018-08-04T01:02:14.403Z,99.90
2018-08-04T01:04:42.717Z,99.90
2018-08-04T01:07:10.983Z,99.90
2018-08-04T01:09:39.238Z,99.90
2018-08-04T01:12:07.547Z,99.90
2018-08-04T01:14:35.812Z,99.90
2018-08-04T01:17:04.116Z,99.90
2018-08-04T01:19:33.574Z,99.90
2018-08-04T01:22:01.856Z,99.90
2018-08-04T01:24:30.162Z,99.90
2018-08-04T01:26:58.483Z,99.90
2018-08-04T01:31:54.835Z,99.90
2018-08-04T01:34:23.108Z,99.90
2018-08-04T01:36:51.392Z,99.90
2018-08-04T01:39:19.689Z,99.90
2018-08-04T01:41:47.964Z,99.90
2018-08-04T01:44:16.300Z,99.90
2018-08-04T01:46:44.572Z,99.90
2018-08-04T01:49:12.850Z,99.90
2018-08-04T01:51:41.148Z,99.90
2018-08-04T01:54:09.428Z,99.90
2018-08-04T01:56:37.724Z,99.90
2018-08-04T01:59:06.007Z,99.90
2018-08-04T02:01:34.262Z,99.90
2018-08-04T02:04:02.516Z,99.90
2018-08-04T02:06:30.808Z,99.90
2018-08-04T02:08:59.134Z,99.90
2018-08-04T02:11:27.444Z,99.90
2018-08-04T02:13:55.726Z,99.90
2018-08-04T02:16:24.000Z,99.90
2018-08-04T02:18:52.345Z,99.90
2018-08-04T02:21:20.738Z,99.90
2018-08-04T02:23:49.040Z,99.90
2018-08-04T02:28:45.315Z,99.90
2018-08-04T02:31:13.609Z,99.90
2018-08-04T02:33:41.881Z,99.90
2018-08-04T02:36:10.148Z,99.90
2018-08-04T02:38:38.424Z,99.90
2018-08-04T02:41:06.829Z,99.90
2018-08-04T02:43:35.132Z,99.90
2018-08-04T02:48:31.440Z,99.90
2018-08-04T02:50:59.764Z,99.90
2018-08-04T02:53:28.013Z,99.90
2018-08-04T02:55:56.304Z,99.90
2018-08-04T02:58:24.616Z,99.90
2018-08-04T03:00:52.902Z,99.90
2018-08-04T03:03:21.166Z,99.90
2018-08-04T03:05:49.424Z,99.90
2018-08-04T03:08:17.875Z,99.90
2018-08-04T03:10:46.160Z,99.90
2018-08-04T03:13:14.450Z,99.90
2018-08-04T03:15:42.726Z,99.90
2018-08-04T03:18:11.001Z,99.90
2018-08-04T03:20:39.332Z,99.90
2018-08-04T03:23:07.618Z,99.90
2018-08-04T03:25:35.885Z,99.90
2018-08-04T03:28:04.265Z,99.90
2018-08-04T03:30:32.576Z,99.90
2018-08-04T03:33:00.825Z,99.90
2018-08-04T03:35:29.112Z,99.90
2018-08-04T03:37:57.414Z,99.90
2018-08-04T03:40:25.716Z,99.90
2018-08-04T03:42:54.020Z,99.90
2018-08-04T03:47:50.304Z,99.90
2018-08-04T03:50:18.588Z,99.90
2018-08-04T03:52:46.900Z,99.90
2018-08-04T03:55:15.180Z,99.90
2018-08-04T03:57:43.443Z,99.90
2018-08-04T04:00:11.728Z,99.90
2018-08-04T04:02:39.997Z,99.90
2018-08-04T04:05:08.271Z,99.90
2018-08-04T04:07:36.798Z,99.90
2018-08-04T04:10:05.257Z,99.90
2018-08-04T04:12:33.516Z,99.90
2018-08-04T04:15:01.823Z,99.90
2018-08-04T04:17:34.342Z,99.90
2018-08-04T04:20:02.599Z,99.90
2018-08-04T04:22:37.336Z,99.90
2018-08-04T04:25:05.593Z,99.90
2018-08-04T04:27:34.013Z,99.90
2018-08-04T04:30:02.312Z,99.90
2018-08-04T04:32:30.580Z,99.90
2018-08-04T04:34:58.905Z,99.90
2018-08-04T04:37:27.157Z,99.90
2018-08-04T04:39:55.434Z,99.90
2018-08-04T04:42:23.772Z,99.90
2018-08-04T04:44:52.042Z,99.90
2018-08-04T04:47:20.309Z,99.90
2018-08-04T04:52:16.576Z,99.90
2018-08-04T04:54:44.839Z,99.90
2018-08-04T04:57:13.117Z,99.90
2018-08-04T04:59:41.377Z,99.90
2018-08-04T05:02:09.670Z,99.90
2018-08-04T05:04:37.927Z,99.90
2018-08-04T05:07:06.452Z,99.90
2018-08-04T05:09:34.723Z,99.90
2018-08-04T05:12:02.999Z,99.90
2018-08-04T05:14:32.135Z,99.90
2018-08-04T05:17:00.398Z,99.90
2018-08-04T05:19:28.737Z,99.90
2018-08-04T05:21:56.993Z,99.90
2018-08-04T05:24:25.315Z,99.90
2018-08-04T05:26:53.569Z,99.90
2018-08-04T05:29:21.845Z,99.90
2018-08-04T05:31:50.175Z,99.90
2018-08-04T05:34:18.419Z,99.90
2018-08-04T05:36:46.720Z,99.90
2018-08-04T05:39:14.987Z,99.90
2018-08-04T05:41:43.299Z,99.90
2018-08-04T05:44:11.604Z,99.90
2018-08-04T05:46:39.876Z,99.90
2018-08-04T05:49:08.288Z,99.90
2018-08-04T05:54:04.652Z,99.90
2018-08-04T05:59:00.964Z,99.90
2018-08-04T06:01:29.263Z,99.90
2018-08-04T06:03:57.553Z,99.90
2018-08-04T06:06:25.836Z,99.90
2018-08-04T06:08:54.135Z,99.90
2018-08-04T06:13:50.471Z,99.90
2018-08-04T06:16:18.727Z,99.90
2018-08-04T06:18:47.011Z,99.90
2018-08-04T06:21:15.263Z,99.90
2018-08-04T06:23:43.604Z,99.90
2018-08-04T06:26:11.936Z,99.90
2018-08-04T06:28:40.296Z,99.90
2018-08-04T06:31:08.590Z,99.90
2018-08-04T06:33:36.883Z,99.90
2018-08-04T06:36:05.319Z,99.90
2018-08-04T06:38:33.588Z,99.90
2018-08-04T06:41:01.859Z,99.90
2018-08-04T06:43:30.104Z,99.90
2018-08-04T06:45:58.398Z,99.90
2018-08-04T06:48:26.683Z,99.90
2018-08-04T06:50:55.220Z,99.90
2018-08-04T06:53:23.527Z,99.90
2018-08-04T06:55:51.788Z,99.90
2018-08-04T06:58:20.082Z,99.90
2018-08-04T07:00:48.336Z,99.90
2018-08-04T07:03:16.643Z,99.90
2018-08-04T07:05:44.884Z,99.90
2018-08-04T07:08:13.165Z,99.90
2018-08-04T07:10:41.436Z,99.90
2018-08-04T07:13:09.748Z,99.90
2018-08-04T07:15:38.064Z,99.90
2018-08-04T07:18:06.349Z,99.90
2018-08-04T07:20:34.608Z,99.90
2018-08-04T07:23:02.888Z,99.90
2018-08-04T07:25:31.150Z,99.90
2018-08-04T07:27:59.516Z,99.90
2018-08-04T07:30:27.840Z,99.90
2018-08-04T07:32:56.173Z,99.90
2018-08-04T07:35:24.444Z,99.90
2018-08-04T07:37:53.048Z,99.90
2018-08-04T07:40:21.343Z,99.90
2018-08-04T07:45:17.580Z,99.90
2018-08-04T07:47:45.852Z,99.90
2018-08-04T07:50:14.164Z,99.90
2018-08-04T07:52:42.445Z,99.90
2018-08-04T07:55:10.706Z,99.90
2018-08-04T07:57:38.994Z,99.90
2018-08-04T08:00:07.960Z,98.80
2018-08-04T08:02:36.224Z,98.70
2018-08-04T08:05:04.587Z,97.60
2018-08-04T08:07:32.812Z,97.20
2018-08-04T08:12:29.056Z,97.00
2018-08-04T08:14:57.308Z,96.60
2018-08-04T08:17:25.560Z,96.70
2018-08-04T08:19:53.812Z,96.50
2018-08-04T08:24:54.855Z,97.70
2018-08-04T08:27:23.062Z,96.90
2018-08-04T08:29:51.330Z,96.30
2018-08-04T08:32:19.608Z,96.30
2018-08-04T08:34:47.938Z,96.40
2018-08-04T08:37:16.200Z,95.70
2018-08-04T08:39:44.457Z,95.30
2018-08-04T08:42:12.724Z,94.60
2018-08-04T08:44:40.986Z,93.70
2018-08-04T08:47:09.265Z,93.00
2018-08-04T08:52:05.760Z,90.40
2018-08-04T08:54:34.052Z,89.50
2018-08-04T08:57:02.328Z,87.90
2018-08-04T08:59:30.612Z,88.10
2018-08-04T09:01:58.876Z,87.50
2018-08-04T09:04:27.146Z,85.40
2018-08-04T09:06:55.405Z,82.80
2018-08-04T09:09:23.665Z,82.60
2018-08-04T09:14:19.950Z,80.80
2018-08-04T09:16:48.210Z,77.00
2018-08-04T09:19:16.464Z,76.30
2018-08-04T09:21:44.755Z,74.50
2018-08-04T09:26:41.241Z,70.40
2018-08-04T09:29:09.502Z,71.20
2018-08-04T09:34:06.402Z,70.70
2018-08-04T09:36:34.950Z,71.20
2018-08-04T09:39:04.591Z,68.30
2018-08-04T09:41:32.896Z,66.10
2018-08-04T09:44:01.181Z,64.90
2018-08-04T09:46:29.460Z,65.60
2018-08-04T09:48:57.742Z,65.50
2018-08-04T09:51:26.017Z,64.10
2018-08-04T09:53:54.315Z,61.20
2018-08-04T09:56:22.624Z,62.10
2018-08-04T09:58:50.927Z,64.00
2018-08-04T10:01:24.601Z,64.20
2018-08-04T10:03:52.920Z,64.60
2018-08-04T10:06:21.354Z,64.70
2018-08-04T10:08:49.661Z,62.90
2018-08-04T10:11:17.936Z,61.00
2018-08-04T10:13:46.227Z,60.40
2018-08-04T10:16:14.515Z,58.00
2018-08-04T10:18:43.134Z,57.10
2018-08-04T10:21:11.449Z,57.10
2018-08-04T10:23:39.977Z,56.60
2018-08-04T10:26:08.533Z,57.20
2018-08-04T10:28:36.920Z,55.50
2018-08-04T10:31:05.219Z,55.40
2018-08-04T10:33:33.475Z,53.10
2018-08-04T10:36:01.784Z,51.20
2018-08-04T10:38:30.106Z,50.70
2018-08-04T10:40:58.385Z,49.60
2018-08-04T10:43:26.667Z,50.40
2018-08-04T10:45:54.947Z,50.90
2018-08-04T10:48:23.334Z,49.80
2018-08-04T10:50:51.665Z,49.50
2018-08-04T10:53:19.935Z,49.40
2018-08-04T10:55:48.247Z,49.00
2018-08-04T10:58:16.627Z,50.10
2018-08-04T11:03:19.519Z,48.20
2018-08-04T11:05:47.855Z,48.80
2018-08-04T11:08:16.358Z,49.30
2018-08-04T11:13:12.691Z,49.00
2018-08-04T11:15:41.001Z,49.30
2018-08-04T11:18:09.438Z,49.80
2018-08-04T11:20:37.652Z,50.10
2018-08-04T11:23:06.168Z,50.00
2018-08-04T11:25:34.493Z,51.20
2018-08-04T11:28:02.870Z,50.50
2018-08-04T11:30:31.262Z,50.50
2018-08-04T11:32:59.574Z,50.70
2018-08-04T11:35:27.917Z,50.00
2018-08-04T11:40:24.320Z,50.90
2018-08-04T11:42:52.655Z,49.80
2018-08-04T11:45:21.002Z,50.40
2018-08-04T11:50:17.429Z,50.80
2018-08-04T11:52:45.841Z,50.00
2018-08-04T11:55:14.167Z,50.00
2018-08-04T11:57:42.505Z,50.30
2018-08-04T12:02:39.049Z,50.00
2018-08-04T12:05:07.416Z,50.20
2018-08-04T12:07:35.891Z,50.00
2018-08-04T12:10:04.413Z,50.90
2018-08-04T12:12:32.883Z,50.10
2018-08-04T12:15:01.224Z,50.60
2018-08-04T12:17:29.523Z,49.10
2018-08-04T12:19:57.869Z,48.60
2018-08-04T12:24:54.599Z,49.40
2018-08-04T12:27:22.935Z,49.90
2018-08-04T12:29:51.503Z,50.50
2018-08-04T12:32:20.809Z,49.80
2018-08-04T12:34:49.152Z,49.70
2018-08-04T12:37:17.568Z,49.30
2018-08-04T12:39:45.883Z,50.20
2018-08-04T12:42:14.181Z,50.10
2018-08-04T12:44:42.488Z,47.90
2018-08-04T12:47:10.771Z,48.30
2018-08-04T12:49:39.137Z,48.20
2018-08-04T12:52:07.435Z,48.70
2018-08-04T12:54:35.760Z,47.60
2018-08-04T12:57:04.124Z,48.50
2018-08-04T12:59:32.455Z,48.40
2018-08-04T13:02:00.793Z,48.40
2018-08-04T13:04:29.176Z,48.20
2018-08-04T13:06:57.521Z,48.90
2018-08-04T13:09:25.869Z,48.00
2018-08-04T13:14:22.333Z,47.80
2018-08-04T13:19:18.667Z,48.10
2018-08-04T13:21:47.038Z,48.20
2018-08-04T13:24:15.396Z,48.40
2018-08-04T13:26:43.978Z,49.00
2018-08-04T13:29:12.336Z,48.90
2018-08-04T13:34:08.743Z,48.90
2018-08-04T13:36:37.688Z,48.70
2018-08-04T13:41:35.520Z,48.30
2018-08-04T13:44:04.042Z,49.20
2018-08-04T13:46:32.424Z,48.80
2018-08-04T13:49:00.754Z,48.30
2018-08-04T13:51:29.124Z,47.70
2018-08-04T13:53:57.791Z,47.80
2018-08-04T13:56:26.174Z,45.90
2018-08-04T13:58:54.538Z,46.70
2018-08-04T14:01:22.848Z,47.50
2018-08-04T14:03:51.214Z,48.50
2018-08-04T14:06:19.866Z,49.00
2018-08-04T14:08:48.236Z,49.00
2018-08-04T14:11:16.561Z,49.50
2018-08-04T14:13:44.890Z,49.30
2018-08-04T14:16:13.276Z,49.90
2018-08-04T14:18:41.614Z,49.50
2018-08-04T14:21:09.894Z,49.70
2018-08-04T14:23:38.186Z,49.80
2018-08-04T14:26:06.505Z,49.70
2018-08-04T14:31:02.899Z,50.50
2018-08-04T14:33:31.327Z,50.80
2018-08-04T14:35:59.607Z,49.70
2018-08-04T14:38:27.915Z,49.10
2018-08-04T14:40:57.275Z,50.00
2018-08-04T14:43:25.614Z,50.80
2018-08-04T14:45:53.959Z,51.20
2018-08-04T14:48:22.478Z,50.80
2018-08-04T14:50:50.784Z,50.00
2018-08-04T14:53:19.115Z,50.10
2018-08-04T14:55:47.446Z,49.00
2018-08-04T14:58:16.725Z,47.30
2018-08-04T15:00:44.993Z,47.10
2018-08-04T15:03:13.276Z,47.50
2018-08-04T15:05:41.612Z,47.70
2018-08-04T15:08:09.918Z,47.50
2018-08-04T15:10:38.236Z,47.60
2018-08-04T15:13:06.552Z,47.80
2018-08-04T15:15:34.940Z,48.10
2018-08-04T15:18:03.295Z,49.00
2018-08-04T15:20:31.650Z,49.50
2018-08-04T15:23:00.021Z,50.40
2018-08-04T15:25:28.344Z,50.60
2018-08-04T15:30:24.708Z,50.50
2018-08-04T15:35:21.026Z,48.60
2018-08-04T15:40:17.372Z,46.80
2018-08-04T15:42:45.670Z,46.80
2018-08-04T15:45:14.020Z,46.80
2018-08-04T15:47:42.304Z,47.10
2018-08-04T15:50:10.598Z,46.20
2018-08-04T15:52:38.862Z,46.70
2018-08-04T15:55:07.208Z,46.60
2018-08-04T15:57:35.887Z,47.50
2018-08-04T16:00:04.948Z,47.90
2018-08-04T16:02:33.241Z,48.30
2018-08-04T16:05:01.502Z,48.40
2018-08-04T16:07:29.851Z,48.80
2018-08-04T16:09:58.204Z,48.40
2018-08-04T16:12:26.496Z,48.10
2018-08-04T16:14:54.780Z,48.20
2018-08-04T16:17:23.051Z,48.10
2018-08-04T16:19:51.448Z,47.50
2018-08-04T16:22:19.790Z,46.50
2018-08-04T16:24:48.100Z,46.20
2018-08-04T16:27:16.415Z,46.50
2018-08-04T16:29:44.768Z,47.20
2018-08-04T16:32:13.091Z,47.20
2018-08-04T16:34:41.388Z,48.10
2018-08-04T16:39:37.656Z,47.40
2018-08-04T16:42:06.240Z,47.10
2018-08-04T16:47:02.516Z,47.90
2018-08-04T16:49:30.910Z,48.20
2018-08-04T16:51:59.179Z,48.90
2018-08-04T16:54:27.453Z,49.30
2018-08-04T16:56:55.745Z,49.90
2018-08-04T16:59:24.045Z,50.10
2018-08-04T17:01:52.382Z,50.70
2018-08-04T17:04:20.664Z,51.30
2018-08-04T17:06:48.957Z,51.70
2018-08-04T17:11:45.279Z,53.00
2018-08-04T17:14:13.584Z,53.30
2018-08-04T17:16:41.899Z,53.00
2018-08-04T17:19:10.187Z,52.80
2018-08-04T17:21:38.555Z,53.00
2018-08-04T17:24:06.865Z,53.20
2018-08-04T17:26:35.266Z,53.30
2018-08-04T17:29:03.901Z,53.60
2018-08-04T17:31:32.246Z,54.10
2018-08-04T17:34:00.567Z,54.10
2018-08-04T17:38:56.947Z,52.70
2018-08-04T17:41:25.292Z,53.60
2018-08-04T17:43:53.653Z,55.20
2018-08-04T17:46:22.017Z,54.90
2018-08-04T17:48:50.422Z,53.60
2018-08-04T17:51:18.753Z,52.40
2018-08-04T17:53:47.047Z,53.10
2018-08-04T17:56:15.349Z,52.40
2018-08-04T17:58:43.696Z,51.70
2018-08-04T18:03:40.128Z,52.30
2018-08-04T18:06:08.470Z,53.80
2018-08-04T18:08:36.771Z,55.80
2018-08-04T18:11:05.145Z,57.70
2018-08-04T18:13:34.274Z,58.80
2018-08-04T18:16:02.673Z,58.80
2018-08-04T18:18:31.015Z,57.80
2018-08-04T18:20:59.749Z,57.50
2018-08-04T18:23:28.235Z,58.00
2018-08-04T18:25:56.953Z,58.60
2018-08-04T18:28:25.329Z,59.00
2018-08-04T18:30:53.776Z,60.70
2018-08-04T18:33:22.099Z,61.30
2018-08-04T18:35:51.452Z,59.40
2018-08-04T18:38:19.791Z,57.70
2018-08-04T18:40:48.131Z,57.90
2018-08-04T18:43:16.508Z,57.60
2018-08-04T18:45:44.839Z,57.60
2018-08-04T18:48:13.170Z,57.70
2018-08-04T18:50:41.529Z,57.50
2018-08-04T18:53:09.949Z,57.80
2018-08-04T18:55:38.353Z,57.50
2018-08-04T18:58:06.769Z,57.10
2018-08-04T19:00:35.165Z,57.20
2018-08-04T19:05:31.700Z,57.50
2018-08-04T19:08:00.165Z,57.70
2018-08-04T19:10:28.557Z,56.70
2018-08-04T19:12:56.910Z,56.90
2018-08-04T19:15:25.283Z,56.50
2018-08-04T19:17:53.709Z,56.70
2018-08-04T19:20:22.041Z,56.70
2018-08-04T19:22:51.291Z,56.60
2018-08-04T19:25:19.638Z,56.50
2018-08-04T19:27:48.012Z,56.50
2018-08-04T19:30:16.354Z,56.50
2018-08-04T19:32:44.745Z,56.40
2018-08-04T19:35:13.934Z,56.50
2018-08-04T19:37:42.309Z,56.30
2018-08-04T19:40:10.700Z,56.00
2018-08-04T19:42:39.189Z,55.80
2018-08-04T19:45:08.005Z,55.90
2018-08-04T19:47:36.406Z,55.40
2018-08-04T19:50:04.994Z,55.00
2018-08-04T19:55:01.472Z,54.50
2018-08-04T19:57:30.944Z,54.40
2018-08-04T19:59:59.317Z,54.50
2018-08-04T20:02:27.700Z,54.50
2018-08-04T20:04:56.069Z,54.20
2018-08-04T20:07:24.488Z,54.20
2018-08-04T20:09:52.844Z,54.40
2018-08-04T20:12:21.352Z,54.70
2018-08-04T20:14:49.791Z,54.80
2018-08-04T20:17:18.502Z,54.90
2018-08-04T20:19:46.910Z,54.70
2018-08-04T20:24:46.220Z,54.90
2018-08-04T20:27:15.385Z,55.00
2018-08-04T20:29:43.867Z,54.80
2018-08-04T20:32:12.251Z,55.20
2018-08-04T20:37:08.850Z,55.60
2018-08-04T20:39:37.259Z,55.90
2018-08-04T20:42:06.850Z,56.30
2018-08-04T20:44:35.255Z,56.50
2018-08-04T20:47:04.374Z,57.00
2018-08-04T20:49:33.707Z,57.50
2018-08-04T20:54:30.273Z,58.50
2018-08-04T20:56:59.911Z,58.30
2018-08-04T20:59:28.748Z,59.00
2018-08-04T21:01:58.936Z,59.60
2018-08-04T21:04:29.073Z,59.60
2018-08-04T21:06:57.562Z,60.20
2018-08-04T21:11:56.157Z,60.60
2018-08-04T21:14:26.287Z,60.90
2018-08-04T21:16:55.593Z,61.10
2018-08-04T21:19:26.142Z,61.30
2018-08-04T21:21:54.609Z,61.90
2018-08-04T21:24:24.229Z,62.70
2018-08-04T21:26:53.513Z,62.80
2018-08-04T21:29:22.520Z,63.60
2018-08-04T21:31:51.564Z,63.40
2018-08-04T21:34:20.138Z,63.60
2018-08-04T21:36:48.568Z,64.40
2018-08-04T21:41:46.844Z,62.80
2018-08-04T21:44:15.578Z,62.70
2018-08-04T21:46:45.939Z,62.40
2018-08-04T21:49:14.759Z,61.20
2018-08-04T21:51:44.323Z,62.50
2018-08-04T21:54:13.815Z,61.30
2018-08-04T21:59:10.903Z,60.50
2018-08-04T22:01:43.594Z,60.20
2018-08-04T22:04:11.950Z,60.40
2018-08-04T22:09:20.798Z,60.30
2018-08-04T22:14:17.338Z,61.10
2018-08-04T22:16:45.682Z,61.30
2018-08-04T22:19:14.044Z,61.60
2018-08-04T22:21:42.346Z,61.90
2018-08-04T22:24:10.994Z,62.30
2018-08-04T22:26:39.318Z,62.60
2018-08-04T22:29:07.660Z,63.10
2018-08-04T22:31:35.963Z,63.50
2018-08-04T22:34:04.276Z,64.00
2018-08-04T22:36:32.580Z,64.70
2018-08-04T22:39:00.856Z,65.90
2018-08-04T22:43:57.156Z,67.40
2018-08-04T22:46:25.453Z,68.00
2018-08-04T22:48:54.491Z,68.60
2018-08-04T22:51:29.773Z,68.60
2018-08-04T22:53:58.082Z,68.80
2018-08-04T22:56:26.712Z,69.10
2018-08-04T22:58:55.012Z,69.20
2018-08-04T23:01:23.502Z,70.30
2018-08-04T23:03:51.836Z,69.90
2018-08-04T23:06:20.119Z,70.00
2018-08-04T23:08:48.450Z,70.10
2018-08-04T23:11:16.683Z,70.10
2018-08-04T23:13:44.936Z,70.60
2018-08-04T23:16:13.204Z,70.80
2018-08-04T23:18:41.451Z,71.20
2018-08-04T23:21:09.703Z,72.20
2018-08-04T23:23:37.972Z,71.60
2018-08-04T23:26:06.448Z,71.80
2018-08-04T23:31:02.696Z,72.40
2018-08-04T23:33:30.959Z,72.80
2018-08-04T23:35:59.198Z,73.00
2018-08-04T23:38:27.454Z,73.50
2018-08-04T23:43:23.710Z,73.80
2018-08-04T23:45:51.952Z,74.00
2018-08-04T23:48:20.205Z,74.10
2018-08-04T23:50:48.473Z,74.40
2018-08-04T23:53:16.758Z,74.70
2018-08-04T23:55:45.028Z,75.10
2018-08-04T23:58:13.281Z,75.30
